Cannon Ball, North Dakota
Current Conditions -  °F | °C
As of 9:15 PM on Thursday 27 Nov 2014 (Local Time) from K7L2 Reporting Station
Clear Clear  
Wind Chill:   Ceiling: Unl
Heat Index: 12°   Visibility: 10mi
Dew Point:   Wind: 9mph
Humidity: 85%   Direction: 130°SE
Pressure: 29.91"   Gusts: NA
Location:  46.4°N, 100.6°W
Report Text: K7L2 280415Z AUTO 13008KT 10SM CLR M11/M13 A2991 RMK AO2
Loading
Personal Weather Stations






























Interactive Weather Map New forecast layout! Learn more

10-Day Weather Forecast

Advertisements
Track Severe Weather on mobile